createdAt,value
2022-09-05T00:01:17.649Z,1014.8
2022-09-05T00:06:02.273Z,1014.8
2022-09-05T00:11:41.754Z,1014.8
2022-09-05T00:16:12.821Z,1014.8
2022-09-05T00:24:27.972Z,1014.8
2022-09-05T00:26:28.561Z,1014.8
2022-09-05T00:31:55.559Z,1014.8
2022-09-05T00:36:29.420Z,1014.9
2022-09-05T00:41:45.826Z,1014.8
2022-09-05T00:46:52.248Z,1014.8
2022-09-05T00:52:18.609Z,1014.7
2022-09-05T00:57:04.956Z,1014.7
2022-09-05T01:02:11.559Z,1014.7
2022-09-05T01:07:17.863Z,1014.7
2022-09-05T01:12:14.321Z,1014.7
2022-09-05T01:17:20.707Z,1014.8
2022-09-05T01:22:37.174Z,1014.8
2022-09-05T01:29:13.419Z,1014.7
2022-09-05T01:32:49.861Z,1014.8
2022-09-05T01:37:56.235Z,1014.8
2022-09-05T01:43:02.637Z,1014.8
2022-09-05T01:48:29.171Z,1014.7
2022-09-05T01:53:35.665Z,1014.8
2022-09-05T01:58:22.574Z,1014.7
2022-09-05T02:03:27.990Z,1014.7
2022-09-05T02:08:35.331Z,1014.7
2022-09-05T02:13:41.708Z,1014.7
2022-09-05T02:19:12.298Z,1014.8
2022-09-05T02:23:54.649Z,1014.9
2022-09-05T02:29:01.181Z,1014.9
2022-09-05T02:34:07.606Z,1014.8
2022-09-05T02:45:00.884Z,1014.8
2022-09-05T02:45:26.955Z,1014.8
2022-09-05T02:51:53.606Z,1014.8
2022-09-05T02:57:24.058Z,1014.8
2022-09-05T03:00:20.584Z,1014.8
2022-09-05T03:05:26.986Z,1014.8
2022-09-05T03:10:53.235Z,1014.7
2022-09-05T03:15:29.845Z,1014.8
2022-09-05T03:21:30.353Z,1014.8
2022-09-05T03:25:52.834Z,1014.8
2022-09-05T03:30:59.240Z,1014.9
2022-09-05T03:35:55.549Z,1014.9
2022-09-05T03:41:11.956Z,1014.8
2022-09-05T03:46:08.399Z,1014.9
2022-09-05T03:57:12.367Z,1015.0
2022-09-05T03:57:17.819Z,1014.9
2022-09-05T04:06:36.139Z,1014.9
2022-09-05T04:08:26.467Z,1015.0
2022-09-05T04:11:50.362Z,1014.9
2022-09-05T04:16:56.892Z,1015.0
2022-09-05T04:22:03.241Z,1014.9
2022-09-05T04:27:34.821Z,1015.0
2022-09-05T04:32:18.794Z,1015.0
2022-09-05T04:37:23.664Z,1015.0
2022-09-05T04:42:20.020Z,1015.1
2022-09-05T04:47:36.427Z,1015.1
2022-09-05T04:55:03.046Z,1015.1
2022-09-05T04:59:03.736Z,1015.1
2022-09-05T05:06:10.259Z,1015.2
2022-09-05T05:08:38.027Z,1015.2
2022-09-05T05:18:03.358Z,1015.3
2022-09-05T05:18:46.912Z,1015.4
2022-09-05T05:23:21.383Z,1015.4
2022-09-05T05:28:28.105Z,1015.4
2022-09-05T05:33:34.315Z,1015.4
2022-09-05T05:38:40.693Z,1015.4
2022-09-05T05:43:47.082Z,1015.5
2022-09-05T05:48:56.955Z,1015.5
2022-09-05T05:53:59.938Z,1015.6
2022-09-05T06:00:14.929Z,1015.6
2022-09-05T06:06:16.982Z,1015.6
2022-09-05T06:14:49.842Z,1015.7
2022-09-05T06:15:13.189Z,1015.7
2022-09-05T06:31:31.957Z,1015.6
2022-09-05T06:36:15.017Z,1015.7
2022-09-05T06:41:21.409Z,1015.7
2022-09-05T06:47:21.941Z,1015.7
2022-09-05T06:52:09.763Z,1015.6
2022-09-05T06:57:21.644Z,1015.6
2022-09-05T07:02:59.800Z,1015.7
2022-09-05T07:07:35.418Z,1015.5
2022-09-05T07:12:31.823Z,1015.8
2022-09-05T07:18:12.278Z,1015.8
2022-09-05T07:22:48.352Z,1015.8
2022-09-05T07:28:29.866Z,1015.9
2022-09-05T07:33:07.452Z,1015.8
2022-09-05T07:38:03.822Z,1016.0
2022-09-05T07:43:10.719Z,1016.0
2022-09-05T07:48:34.184Z,1016.0
2022-09-05T07:56:55.403Z,1016.0
2022-09-05T07:58:39.596Z,1015.9
2022-09-05T08:03:36.097Z,1015.8
2022-09-05T08:09:21.461Z,1015.8
2022-09-05T08:14:38.543Z,1015.8
2022-09-05T08:19:05.293Z,1015.8
2022-09-05T08:24:01.650Z,1015.6
2022-09-05T08:29:19.710Z,1015.6
2022-09-05T08:34:31.516Z,1015.5
2022-09-05T08:39:32.540Z,1015.5
2022-09-05T08:46:42.291Z,1015.5
2022-09-05T08:52:39.694Z,1015.3
2022-09-05T08:55:26.859Z,1015.3
2022-09-05T09:00:33.273Z,1015.2
2022-09-05T09:06:12.003Z,1014.9
2022-09-05T09:10:45.946Z,1015.0
2022-09-05T09:15:52.417Z,1014.9
2022-09-05T09:21:18.737Z,1014.8
2022-09-05T09:26:05.091Z,1014.6
2022-09-05T09:31:01.473Z,1014.5
2022-09-05T09:36:17.846Z,1014.3
2022-09-05T09:48:36.917Z,1014.1
2022-09-05T09:52:21.242Z,1014.0
2022-09-05T09:57:42.542Z,1013.9
2022-09-05T10:10:32.737Z,1014.0
2022-09-05T10:10:45.728Z,1013.9
2022-09-05T10:12:37.638Z,1013.7
2022-09-05T10:19:08.175Z,1013.7
2022-09-05T10:23:14.449Z,1013.6
2022-09-05T10:28:16.812Z,1013.5
2022-09-05T10:35:08.291Z,1013.4
2022-09-05T10:38:43.739Z,1013.3
2022-09-05T10:43:51.156Z,1013.4
2022-09-05T10:48:57.507Z,1013.4
2022-09-05T10:54:03.886Z,1013.4
2022-09-05T11:01:33.395Z,1013.2
2022-09-05T11:04:16.822Z,1013.0
2022-09-05T11:09:23.140Z,1012.8
2022-09-05T11:15:47.787Z,1012.7
2022-09-05T11:19:25.893Z,1013.6
2022-09-05T11:24:42.413Z,1013.3
2022-09-05T11:29:48.812Z,1013.1
2022-09-05T11:40:02.008Z,1013.1
2022-09-05T11:41:11.645Z,1012.9
2022-09-05T11:45:07.995Z,1013.0
2022-09-05T11:50:09.137Z,1012.8
2022-09-05T11:55:21.729Z,1012.9
2022-09-05T12:00:33.453Z,1013.0
2022-09-05T12:05:49.921Z,1013.8
2022-09-05T12:11:04.119Z,1013.5
2022-09-05T12:16:07.893Z,1013.4
2022-09-05T12:20:43.668Z,1013.1
2022-09-05T12:27:42.468Z,1013.0
2022-09-05T12:32:36.584Z,1012.9
2022-09-05T12:40:40.226Z,1012.9
2022-09-05T12:41:43.994Z,1013.1
2022-09-05T12:46:24.891Z,1013.2
2022-09-05T12:51:46.725Z,1013.3
2022-09-05T13:02:02.812Z,1013.0
2022-09-05T13:03:12.049Z,1013.0
2022-09-05T13:06:50.533Z,1013.3
2022-09-05T13:14:53.765Z,1013.0
2022-09-05T13:16:53.242Z,1014.2
2022-09-05T13:22:09.630Z,1013.7
2022-09-05T13:27:16.013Z,1013.6
2022-09-05T13:37:58.801Z,1013.7
2022-09-05T13:38:19.615Z,1013.8
2022-09-05T13:42:25.406Z,1013.5
2022-09-05T13:48:01.852Z,1013.0
2022-09-05T13:52:48.195Z,1013.9
2022-09-05T13:58:14.603Z,1013.6
2022-09-05T14:08:09.864Z,1013.1
2022-09-05T14:13:37.287Z,1013.3
2022-09-05T14:18:23.726Z,1013.1
2022-09-05T14:23:30.002Z,1013.0
2022-09-05T14:28:36.365Z,1012.8
2022-09-05T14:37:44.744Z,1012.6
2022-09-05T14:38:49.283Z,1012.6
2022-09-05T14:43:46.096Z,1012.5
2022-09-05T14:49:01.006Z,1012.5
2022-09-05T14:54:08.699Z,1012.5
2022-09-05T15:02:53.351Z,1012.5
2022-09-05T15:12:15.620Z,1012.4
2022-09-05T15:15:59.078Z,1012.4
2022-09-05T15:19:40.524Z,1012.4
2022-09-05T15:24:36.894Z,1012.4
2022-09-05T15:29:53.409Z,1012.3
2022-09-05T15:35:23.875Z,1012.4
2022-09-05T15:40:07.665Z,1012.4
2022-09-05T15:45:32.699Z,1012.4
2022-09-05T15:50:22.434Z,1012.4
2022-09-05T15:55:25.326Z,1012.4
2022-09-05T16:00:31.702Z,1012.3
2022-09-05T16:10:31.287Z,1012.2
2022-09-05T16:11:07.009Z,1012.3
2022-09-05T16:22:26.635Z,1012.2
2022-09-05T16:23:32.900Z,1012.2
2022-09-05T16:26:03.849Z,1012.3
2022-09-05T16:31:10.253Z,1012.2
2022-09-05T16:36:16.651Z,1012.2
2022-09-05T16:41:24.572Z,1012.1
2022-09-05T16:46:29.391Z,1012.0
2022-09-05T16:51:36.339Z,1012.0
2022-09-05T16:57:02.321Z,1012.0
2022-09-05T17:01:48.998Z,1012.0
2022-09-05T17:07:09.193Z,1011.9
2022-09-05T17:12:25.625Z,1011.9
2022-09-05T17:18:19.519Z,1011.9
2022-09-05T17:24:37.119Z,1011.8
2022-09-05T17:29:26.024Z,1011.7
2022-09-05T17:32:27.127Z,1011.7
2022-09-05T17:37:33.506Z,1011.8
2022-09-05T17:42:39.880Z,1011.7
2022-09-05T17:48:06.294Z,1011.8
2022-09-05T17:52:42.631Z,1011.9
2022-09-05T17:57:58.029Z,1011.9
2022-09-05T18:04:16.020Z,1011.7
2022-09-05T18:08:13.357Z,1011.9
2022-09-05T18:13:32.278Z,1011.8
2022-09-05T18:18:24.291Z,1011.8
2022-09-05T18:23:39.685Z,1011.8
2022-09-05T18:28:59.241Z,1011.9
2022-09-05T18:33:55.376Z,1011.9
2022-09-05T18:39:05.801Z,1011.9
2022-09-05T18:44:12.336Z,1012.1
2022-09-05T18:50:22.188Z,1012.1
2022-09-05T18:54:16.346Z,1012.1
2022-09-05T18:59:17.322Z,1012.2
2022-09-05T19:04:40.876Z,1012.0
2022-09-05T19:09:50.094Z,1012.1
2022-09-05T19:14:36.433Z,1012.1
2022-09-05T19:19:42.822Z,1012.0
2022-09-05T19:24:49.198Z,1012.1
2022-09-05T19:36:59.598Z,1012.2
2022-09-05T19:37:04.963Z,1012.1
2022-09-05T19:47:26.472Z,1012.1
2022-09-05T19:47:50.724Z,1012.0
2022-09-05T19:50:21.096Z,1012.1
2022-09-05T19:55:27.477Z,1012.1
2022-09-05T20:00:34.024Z,1012.1
2022-09-05T20:05:40.352Z,1012.0
2022-09-05T20:10:36.710Z,1012.1
2022-09-05T20:15:53.193Z,1012.1
2022-09-05T20:20:59.501Z,1012.1
2022-09-05T20:25:55.976Z,1012.0
2022-09-05T20:31:32.657Z,1012.0
2022-09-05T20:43:12.569Z,1012.0
2022-09-05T20:43:26.645Z,1011.9
2022-09-05T20:50:08.275Z,1011.9
2022-09-05T20:54:17.182Z,1011.9
2022-09-05T21:01:52.681Z,1012.1
2022-09-05T21:03:46.742Z,1011.9
2022-09-05T21:07:18.936Z,1012.1
2022-09-05T21:13:08.461Z,1012.0
2022-09-05T21:17:16.043Z,1012.0
2022-09-05T21:22:45.195Z,1011.9
2022-09-05T21:32:41.169Z,1011.9
2022-09-05T21:37:40.364Z,1012.0
2022-09-05T21:47:20.341Z,1012.0
2022-09-05T21:54:42.620Z,1012.0
2022-09-05T21:59:20.006Z,1011.9
2022-09-05T21:59:20.587Z,1012.0
2022-09-05T22:03:18.797Z,1012.0
2022-09-05T22:13:28.813Z,1011.7
2022-09-05T22:19:03.275Z,1011.7
2022-09-05T22:28:47.995Z,1011.6
2022-09-05T22:33:54.395Z,1011.6
2022-09-05T22:40:01.023Z,1011.5
2022-09-05T22:46:55.521Z,1011.5
2022-09-05T22:50:37.733Z,1011.5
2022-09-05T22:54:39.990Z,1011.4
2022-09-05T22:59:46.385Z,1011.3
2022-09-05T23:04:32.807Z,1011.3
2022-09-05T23:12:47.484Z,1011.2
2022-09-05T23:15:45.702Z,1011.2
2022-09-05T23:20:15.931Z,1011.2
2022-09-05T23:25:01.424Z,1011.2
2022-09-05T23:30:07.792Z,1011.2
2022-09-05T23:35:14.191Z,1011.3
2022-09-05T23:40:24.556Z,1011.2
2022-09-05T23:45:26.927Z,1011.2
2022-09-05T23:50:33.297Z,1011.2
2022-09-05T23:55:59.738Z,1011.3
